Terminal Aerodrome Forecast
Issued by NWS

Home | Current Version | Previous Version | Graphics & Text | Print | Product List | Glossary On
Versions: 1 2 3 4 5 6 7 8 9 10 11 12 13 14 15 16
000
FTUS43 KFGF 211734
TAFBJI
TAF
KBJI 211734Z 2118/2218 32008KT P6SM OVC008
     FM212000 31009KT P6SM OVC010
     FM221000 29008KT P6SM OVC008
     FM221600 31009KT P6SM OVC010=

USA.gov is the U.S. government's official web portal to all federal, state and local government web resources and services.